Sukkur Weather



Sukkur's Current Weather

Temprature 23o haze

haze

Rain: 0 %

Min Temprature23o
Max Temprature23o
Humidity25
Wind Speed2.51 m/h
Sun Rise06:54:56
Sun Set18:21:14
Current Time: 23-Feb-2019 16:28:02
Lat/Lon: 27.7, 68.86




Sukkur's Geo Location




Sukkur's Weather Forecast

Time Overall Temp Min Temp Max Temp Humidity Wind Speed Rain
23-Feb-2019 (Sat)
17:00:00 scattered clouds 22.840 22.449 22.840 62 2.51 m/h 0 %
20:00:00 clear sky 18.620 18.333 18.620 65 2.42 m/h 0 %
23:00:00 few clouds 15.660 15.465 15.660 76 1.22 m/h 0 %
24-Feb-2019 (Sun)
02:00:00 clear sky 14.030 13.935 14.030 81 1.06 m/h 0 %
05:00:00 clear sky 12.942 12.942 12.942 87 1.06 m/h 0 %
08:00:00 clear sky 13.703 13.703 13.703 83 1.11 m/h 0 %
11:00:00 clear sky 21.224 21.224 21.224 84 1.66 m/h 0 %
14:00:00 clear sky 23.181 23.181 23.181 82 2.02 m/h 0 %
17:00:00 clear sky 23.271 23.271 23.271 63 1.95 m/h 0 %
20:00:00 clear sky 17.968 17.968 17.968 63 1.31 m/h 0 %
23:00:00 clear sky 14.961 14.961 14.961 67 1.36 m/h 0 %
25-Feb-2019 (Mon)
02:00:00 clear sky 13.255 13.255 13.255 69 1.22 m/h 0 %
05:00:00 few clouds 12.702 12.702 12.702 64 2.06 m/h 0 %
08:00:00 clear sky 13.145 13.145 13.145 68 1.37 m/h 0 %
11:00:00 clear sky 20.122 20.122 20.122 78 2.11 m/h 0 %
14:00:00 clear sky 21.798 21.798 21.798 72 2.47 m/h 0 %
17:00:00 clear sky 21.837 21.837 21.837 54 2.06 m/h 0 %
20:00:00 broken clouds 17.473 17.473 17.473 54 1.21 m/h 0 %
23:00:00 overcast clouds 15.817 15.817 15.817 64 2.51 m/h 0 %
26-Feb-2019 (Tue)
02:00:00 scattered clouds 13.301 13.301 13.301 90 1.31 m/h 0 %
05:00:00 clear sky 12.597 12.597 12.597 91 2.01 m/h 0 %
08:00:00 clear sky 13.207 13.207 13.207 86 3.67 m/h 0 %
11:00:00 clear sky 18.592 18.592 18.592 89 3.32 m/h 0 %
14:00:00 clear sky 20.521 20.521 20.521 82 2.11 m/h 0 %
17:00:00 clear sky 20.639 20.639 20.639 61 2.01 m/h 0 %
20:00:00 clear sky 15.661 15.661 15.661 58 1.27 m/h 0 %
23:00:00 clear sky 13.223 13.223 13.223 62 2.12 m/h 0 %
27-Feb-2019 (Wed)
02:00:00 clear sky 11.556 11.556 11.556 81 2.06 m/h 0 %
05:00:00 clear sky 9.944 9.944 9.944 87 1.2 m/h 0 %
08:00:00 clear sky 10.840 10.840 10.840 75 1.27 m/h 0 %
11:00:00 clear sky 18.895 18.895 18.895 80 0.91 m/h 0 %
14:00:00 clear sky 21.511 21.511 21.511 71 2.05 m/h 0 %
17:00:00 clear sky 21.273 21.273 21.273 51 2.86 m/h 0 %
20:00:00 few clouds 16.592 16.592 16.592 51 2.97 m/h 0 %
23:00:00 broken clouds 14.591 14.591 14.591 57 3.07 m/h 0 %
28-Feb-2019 (Thu)
02:00:00 broken clouds 13.291 13.291 13.291 63 1.61 m/h 0 %
05:00:00 broken clouds 12.813 12.813 12.813 65 2.31 m/h 0 %
08:00:00 broken clouds 14.065 14.065 14.065 68 3.51 m/h 0 %
11:00:00 broken clouds 17.697 17.697 17.697 78 2.51 m/h 0 %
14:00:00 few clouds 20.504 20.504 20.504 82 2.27 m/h 0 %

Famous Cities (60)